createdAt,value
2018-05-24T00:00:14.368Z,1015.89
2018-05-24T00:01:14.204Z,1015.86
2018-05-24T00:02:14.187Z,1015.86
2018-05-24T00:03:14.083Z,1015.89
2018-05-24T00:04:14.001Z,1015.89
2018-05-24T00:05:13.883Z,1015.91
2018-05-24T00:06:13.903Z,1015.86
2018-05-24T00:07:13.742Z,1015.90
2018-05-24T00:08:13.712Z,1015.89
2018-05-24T00:09:13.565Z,1015.90
2018-05-24T00:10:13.612Z,1015.91
2018-05-24T00:11:13.411Z,1015.86
2018-05-24T00:12:13.470Z,1015.83
2018-05-24T00:13:13.247Z,1015.82
2018-05-24T00:15:55.344Z,1015.83
2018-05-24T00:16:55.363Z,1015.77
2018-05-24T00:17:55.187Z,1015.83
2018-05-24T00:18:55.237Z,1015.84
2018-05-24T00:19:55.035Z,1015.83
2018-05-24T00:20:55.051Z,1015.82
2018-05-24T00:21:54.885Z,1015.85
2018-05-24T00:22:54.884Z,1015.83
2018-05-24T00:23:54.722Z,1015.81
2018-05-24T00:24:54.771Z,1015.77
2018-05-24T00:25:54.574Z,1015.82
2018-05-24T00:28:36.865Z,1015.81
2018-05-24T00:29:36.888Z,1015.78
2018-05-24T00:30:36.702Z,1015.72
2018-05-24T00:33:18.868Z,1015.71
2018-05-24T00:34:18.891Z,1015.71
2018-05-24T00:35:18.686Z,1015.70
2018-05-24T00:36:18.723Z,1015.69
2018-05-24T00:37:18.542Z,1015.68
2018-05-24T00:38:18.530Z,1015.66
2018-05-24T00:39:18.379Z,1015.65
2018-05-24T00:40:18.420Z,1015.62
2018-05-24T00:41:18.225Z,1015.64
2018-05-24T00:42:18.228Z,1015.64
2018-05-24T00:43:18.088Z,1015.62
2018-05-24T00:44:18.061Z,1015.64
2018-05-24T00:45:17.920Z,1015.60
2018-05-24T00:46:17.949Z,1015.59
2018-05-24T00:47:17.775Z,1015.56
2018-05-24T00:49:59.868Z,1015.56
2018-05-24T00:50:59.866Z,1015.56
2018-05-24T00:51:59.699Z,1015.53
2018-05-24T00:52:59.662Z,1015.54
2018-05-24T00:53:59.560Z,1015.48
2018-05-24T00:54:59.568Z,1015.55
2018-05-24T00:55:59.393Z,1015.49
2018-05-24T00:56:59.377Z,1015.46
2018-05-24T00:57:59.279Z,1015.48
2018-05-24T00:58:59.240Z,1015.43
2018-05-24T00:59:59.075Z,1015.47
2018-05-24T01:00:59.100Z,1015.44
2018-05-24T01:01:58.914Z,1015.46
2018-05-24T01:02:58.905Z,1015.45
2018-05-24T01:03:58.785Z,1015.43
2018-05-24T01:04:58.746Z,1015.41
2018-05-24T01:05:58.620Z,1015.39
2018-05-24T01:06:58.625Z,1015.39
2018-05-24T01:07:58.461Z,1015.41
2018-05-24T01:08:58.438Z,1015.41
2018-05-24T01:09:58.316Z,1015.33
2018-05-24T01:10:58.339Z,1015.34
2018-05-24T01:11:58.142Z,1015.36
2018-05-24T01:12:58.165Z,1015.35
2018-05-24T01:13:57.997Z,1015.32
2018-05-24T01:14:57.992Z,1015.32
2018-05-24T01:15:57.832Z,1015.31
2018-05-24T01:16:57.878Z,1015.35
2018-05-24T01:17:57.711Z,1015.29
2018-05-24T01:18:57.687Z,1015.30
2018-05-24T01:19:57.585Z,1015.28
2018-05-24T01:20:57.500Z,1015.27
2018-05-24T01:21:57.358Z,1015.30
2018-05-24T01:22:57.414Z,1015.30
2018-05-24T01:23:57.212Z,1015.30
2018-05-24T01:24:57.238Z,1015.27
2018-05-24T01:25:57.083Z,1015.31
2018-05-24T01:28:39.367Z,1015.28
2018-05-24T01:29:39.336Z,1015.27
2018-05-24T01:30:39.230Z,1015.23
2018-05-24T01:31:39.264Z,1015.26
2018-05-24T01:32:39.048Z,1015.21
2018-05-24T01:33:39.055Z,1015.23
2018-05-24T01:34:38.906Z,1015.23
2018-05-24T01:35:38.886Z,1015.22
2018-05-24T01:36:38.761Z,1015.24
2018-05-24T01:37:38.779Z,1015.23
2018-05-24T01:38:38.585Z,1015.23
2018-05-24T01:41:20.890Z,1015.22
2018-05-24T01:42:20.874Z,1015.22
2018-05-24T01:43:20.704Z,1015.17
2018-05-24T01:44:20.682Z,1015.29
2018-05-24T01:45:20.554Z,1015.21
2018-05-24T01:46:20.630Z,1015.20
2018-05-24T01:47:20.400Z,1015.21
2018-05-24T01:48:20.401Z,1015.19
2018-05-24T01:49:20.242Z,1015.18
2018-05-24T01:52:02.396Z,1015.18
2018-05-24T01:53:19.950Z,1015.18
2018-05-24T01:54:02.211Z,1015.16
2018-05-24T01:55:02.242Z,1015.20
2018-05-24T01:56:02.086Z,1015.18
2018-05-24T01:57:02.059Z,1015.19
2018-05-24T01:58:01.922Z,1015.16
2018-05-24T01:59:01.956Z,1015.15
2018-05-24T02:00:01.753Z,1015.14
2018-05-24T02:01:01.754Z,1015.12
2018-05-24T02:02:01.633Z,1015.11
2018-05-24T02:03:01.591Z,1015.10
2018-05-24T02:04:01.450Z,1015.10
2018-05-24T02:05:01.471Z,1015.13
2018-05-24T02:06:01.279Z,1015.11
2018-05-24T02:07:01.312Z,1015.08
2018-05-24T02:08:01.121Z,1015.14
2018-05-24T02:09:01.082Z,1015.03
2018-05-24T02:10:00.984Z,1015.03
2018-05-24T02:11:00.997Z,1015.07
2018-05-24T02:12:00.853Z,1015.03
2018-05-24T02:13:00.812Z,1015.00
2018-05-24T02:14:00.664Z,1015.03
2018-05-24T02:15:00.623Z,1014.99
2018-05-24T02:16:00.508Z,1014.96
2018-05-24T02:17:00.545Z,1015.02
2018-05-24T02:18:00.380Z,1014.99
2018-05-24T02:19:00.340Z,1015.01
2018-05-24T02:20:00.188Z,1014.98
2018-05-24T02:21:00.160Z,1015.01
2018-05-24T02:22:00.052Z,1014.98
2018-05-24T02:23:00.096Z,1015.01
2018-05-24T02:23:59.913Z,1014.98
2018-05-24T02:24:59.863Z,1015.01
2018-05-24T02:25:59.783Z,1015.03
2018-05-24T02:26:59.775Z,1015.02
2018-05-24T02:27:59.592Z,1014.98
2018-05-24T02:28:59.656Z,1014.97
2018-05-24T02:29:59.415Z,1014.96
2018-05-24T02:32:41.378Z,1014.94
2018-05-24T02:33:42.442Z,1014.92
2018-05-24T02:34:41.227Z,1014.92
2018-05-24T02:35:41.208Z,1014.86
2018-05-24T02:36:41.079Z,1014.92
2018-05-24T02:37:41.111Z,1014.89
2018-05-24T02:38:40.952Z,1014.88
2018-05-24T02:41:22.907Z,1014.92
2018-05-24T02:44:04.968Z,1014.91
2018-05-24T02:45:04.948Z,1014.92
2018-05-24T02:46:04.735Z,1014.89
2018-05-24T02:47:04.727Z,1014.88
2018-05-24T02:48:04.601Z,1014.93
2018-05-24T02:49:04.530Z,1014.97
2018-05-24T02:50:04.447Z,1014.92
2018-05-24T02:51:04.447Z,1014.99
2018-05-24T02:52:04.299Z,1014.98
2018-05-24T02:53:04.238Z,1014.92
2018-05-24T02:54:04.111Z,1014.95
2018-05-24T02:55:04.076Z,1014.90
2018-05-24T02:56:03.954Z,1014.88
2018-05-24T02:57:03.971Z,1014.89
2018-05-24T02:58:03.804Z,1014.89
2018-05-24T02:59:03.772Z,1014.95
2018-05-24T03:00:03.664Z,1014.90
2018-05-24T03:01:04.651Z,1014.88
2018-05-24T03:02:03.479Z,1014.88
2018-05-24T03:03:03.486Z,1014.83
2018-05-24T03:04:03.345Z,1014.88
2018-05-24T03:05:03.299Z,1014.95
2018-05-24T03:06:03.183Z,1015.03
2018-05-24T03:08:45.429Z,1014.91
2018-05-24T03:09:45.420Z,1014.89
2018-05-24T03:10:45.256Z,1014.94
2018-05-24T03:11:45.221Z,1014.94
2018-05-24T03:12:45.081Z,1014.95
2018-05-24T03:13:45.138Z,1014.93
2018-05-24T03:14:44.929Z,1014.95
2018-05-24T03:17:26.924Z,1015.03
2018-05-24T03:20:08.989Z,1014.95
2018-05-24T03:21:08.930Z,1014.95
2018-05-24T03:22:08.737Z,1014.98
2018-05-24T03:23:08.784Z,1014.95
2018-05-24T03:24:08.614Z,1014.89
2018-05-24T03:25:08.551Z,1014.90
2018-05-24T03:26:08.426Z,1014.94
2018-05-24T03:27:08.463Z,1014.88
2018-05-24T03:28:08.270Z,1014.93
2018-05-24T03:29:08.300Z,1014.99
2018-05-24T03:30:08.116Z,1014.94
2018-05-24T03:31:08.079Z,1014.95
2018-05-24T03:32:07.977Z,1015.00
2018-05-24T03:33:07.991Z,1014.99
2018-05-24T03:34:07.804Z,1014.98
2018-05-24T03:35:07.904Z,1015.09
2018-05-24T03:36:07.649Z,1015.03
2018-05-24T03:37:07.604Z,1015.01
2018-05-24T03:38:07.483Z,1015.06
2018-05-24T03:39:07.513Z,1015.02
2018-05-24T03:40:07.356Z,1015.02
2018-05-24T03:41:07.328Z,1015.08
2018-05-24T03:42:07.177Z,1015.06
2018-05-24T03:43:07.138Z,1015.06
2018-05-24T03:44:07.038Z,1015.11
2018-05-24T03:45:07.043Z,1015.06
2018-05-24T03:46:06.890Z,1015.03
2018-05-24T03:47:06.853Z,1015.01
2018-05-24T03:48:06.714Z,1015.03
2018-05-24T03:49:06.660Z,1015.02
2018-05-24T03:50:06.586Z,1015.07
2018-05-24T03:51:06.611Z,1015.10
2018-05-24T03:52:06.480Z,1015.01
2018-05-24T03:53:29.999Z,1015.02
2018-05-24T03:54:06.242Z,1015.06
2018-05-24T03:55:06.296Z,1015.08
2018-05-24T03:56:06.123Z,1015.07
2018-05-24T03:57:06.105Z,1015.07
2018-05-24T03:58:05.935Z,1015.03
2018-05-24T03:59:05.906Z,1015.05
2018-05-24T04:00:05.779Z,1015.05
2018-05-24T04:01:05.746Z,1015.09
2018-05-24T04:02:05.618Z,1015.04
2018-05-24T04:03:05.623Z,1015.09
2018-05-24T04:04:05.469Z,1015.09
2018-05-24T04:05:05.437Z,1015.04
2018-05-24T04:06:05.331Z,1015.08
2018-05-24T04:07:05.285Z,1015.09
2018-05-24T04:08:05.155Z,1015.13
2018-05-24T04:09:05.153Z,1015.13
2018-05-24T04:10:05.002Z,1015.22
2018-05-24T04:11:04.977Z,1015.18
2018-05-24T04:12:04.866Z,1015.17
2018-05-24T04:13:04.873Z,1015.21
2018-05-24T04:14:04.719Z,1015.19
2018-05-24T04:15:04.679Z,1015.17
2018-05-24T04:16:04.527Z,1015.26
2018-05-24T04:17:04.492Z,1015.21
2018-05-24T04:18:04.365Z,1015.24
2018-05-24T04:19:04.439Z,1015.24
2018-05-24T04:20:04.205Z,1015.23
2018-05-24T04:21:04.202Z,1015.23
2018-05-24T04:22:04.053Z,1015.28
2018-05-24T04:23:04.058Z,1015.29
2018-05-24T04:24:03.903Z,1015.29
2018-05-24T04:25:03.933Z,1015.30
2018-05-24T04:26:03.747Z,1015.29
2018-05-24T04:27:04.804Z,1015.30
2018-05-24T04:28:03.587Z,1015.31
2018-05-24T04:29:03.566Z,1015.26
2018-05-24T04:30:03.437Z,1015.34
2018-05-24T04:31:03.468Z,1015.31
2018-05-24T04:32:03.270Z,1015.33
2018-05-24T04:33:03.358Z,1015.34
2018-05-24T04:34:03.135Z,1015.37
2018-05-24T04:35:03.079Z,1015.38
2018-05-24T04:36:02.959Z,1015.41
2018-05-24T04:37:02.991Z,1015.39
2018-05-24T04:38:02.815Z,1015.42
2018-05-24T04:39:02.830Z,1015.47
2018-05-24T04:40:02.638Z,1015.51
2018-05-24T04:41:02.603Z,1015.53
2018-05-24T04:42:02.485Z,1015.48
2018-05-24T04:43:02.514Z,1015.43
2018-05-24T04:44:02.354Z,1015.50
2018-05-24T04:45:02.327Z,1015.49
2018-05-24T04:46:02.185Z,1015.46
2018-05-24T04:47:02.133Z,1015.46
2018-05-24T04:48:02.023Z,1015.50
2018-05-24T04:49:02.075Z,1015.49
2018-05-24T04:50:01.871Z,1015.49
2018-05-24T04:51:01.856Z,1015.44
2018-05-24T04:52:01.697Z,1015.50
2018-05-24T04:53:01.656Z,1015.52
2018-05-24T04:54:01.644Z,1015.49
2018-05-24T04:55:01.608Z,1015.49
2018-05-24T04:56:01.385Z,1015.50
2018-05-24T04:57:01.380Z,1015.49
2018-05-24T04:58:01.230Z,1015.50
2018-05-24T04:59:02.246Z,1015.50
2018-05-24T05:00:01.090Z,1015.44
2018-05-24T05:01:01.106Z,1015.46
2018-05-24T05:02:00.926Z,1015.47
2018-05-24T05:04:43.095Z,1015.54
2018-05-24T05:05:42.904Z,1015.50
2018-05-24T05:06:42.769Z,1015.48
2018-05-24T05:07:42.810Z,1015.48
2018-05-24T05:08:42.613Z,1015.47
2018-05-24T05:11:24.452Z,1015.50
2018-05-24T05:12:24.411Z,1015.47
2018-05-24T05:13:24.272Z,1015.53
2018-05-24T05:14:24.229Z,1015.51
2018-05-24T05:15:24.135Z,1015.52
2018-05-24T05:18:05.931Z,1015.51
2018-05-24T05:19:05.924Z,1015.53
2018-05-24T05:20:05.822Z,1015.50
2018-05-24T05:21:05.734Z,1015.51
2018-05-24T05:22:05.616Z,1015.56
2018-05-24T05:23:37.511Z,1015.53
2018-05-24T05:24:05.457Z,1015.55
2018-05-24T05:25:06.539Z,1015.51
2018-05-24T05:26:05.302Z,1015.52
2018-05-24T05:27:05.263Z,1015.50
2018-05-24T05:28:05.141Z,1015.51
2018-05-24T05:29:05.172Z,1015.49
2018-05-24T05:30:05.006Z,1015.55
2018-05-24T05:31:05.026Z,1015.54
2018-05-24T05:32:04.832Z,1015.56
2018-05-24T05:33:04.793Z,1015.57
2018-05-24T05:34:04.671Z,1015.54
2018-05-24T05:35:04.698Z,1015.52
2018-05-24T05:36:04.538Z,1015.49
2018-05-24T05:38:46.438Z,1015.48
2018-05-24T05:39:46.423Z,1015.59
2018-05-24T05:40:46.354Z,1015.58
2018-05-24T05:41:47.269Z,1015.55
2018-05-24T05:42:46.128Z,1015.57
2018-05-24T05:43:46.128Z,1015.47
2018-05-24T05:44:46.039Z,1015.49
2018-05-24T05:45:45.949Z,1015.48
2018-05-24T05:46:45.859Z,1015.54
2018-05-24T05:47:45.841Z,1015.59
2018-05-24T05:48:45.649Z,1015.59
2018-05-24T05:49:45.650Z,1015.51
2018-05-24T05:50:45.497Z,1015.49
2018-05-24T05:51:45.499Z,1015.49
2018-05-24T05:52:45.329Z,1015.48
2018-05-24T05:53:45.362Z,1015.47
2018-05-24T05:54:45.185Z,1015.47
2018-05-24T05:57:27.460Z,1015.48
2018-05-24T05:58:27.495Z,1015.43
2018-05-24T05:59:27.288Z,1015.43
2018-05-24T06:00:27.295Z,1015.38
2018-05-24T06:01:27.158Z,1015.36
2018-05-24T06:02:27.096Z,1015.36
2018-05-24T06:03:26.966Z,1015.36
2018-05-24T06:04:27.026Z,1015.37
2018-05-24T06:05:26.810Z,1015.39
2018-05-24T06:06:26.824Z,1015.35
2018-05-24T06:07:26.706Z,1015.35
2018-05-24T06:08:26.624Z,1015.38
2018-05-24T06:09:26.496Z,1015.36
2018-05-24T06:10:26.552Z,1015.37
2018-05-24T06:11:26.385Z,1015.37
2018-05-24T06:12:26.376Z,1015.39
2018-05-24T06:13:26.189Z,1015.39
2018-05-24T06:14:26.172Z,1015.36
2018-05-24T06:15:26.034Z,1015.39
2018-05-24T06:18:07.959Z,1015.36
2018-05-24T06:20:49.952Z,1015.39
2018-05-24T06:21:49.996Z,1015.36
2018-05-24T06:22:49.786Z,1015.38
2018-05-24T06:23:49.764Z,1015.33
2018-05-24T06:24:49.639Z,1015.35
2018-05-24T06:25:49.687Z,1015.34
2018-05-24T06:26:49.506Z,1015.34
2018-05-24T06:27:49.535Z,1015.33
2018-05-24T06:28:49.312Z,1015.29
2018-05-24T06:29:49.298Z,1015.26
2018-05-24T06:33:13.474Z,1015.32
2018-05-24T06:34:13.488Z,1015.24
2018-05-24T06:35:13.324Z,1015.27
2018-05-24T06:37:55.477Z,1015.35
2018-05-24T06:38:55.498Z,1015.36
2018-05-24T06:39:55.300Z,1015.36
2018-05-24T06:40:55.313Z,1015.34
2018-05-24T06:41:55.134Z,1015.31
2018-05-24T06:42:55.179Z,1015.28
2018-05-24T06:43:54.980Z,1015.24
2018-05-24T06:46:36.945Z,1015.30
2018-05-24T06:47:37.986Z,1015.29
2018-05-24T06:48:36.795Z,1015.30
2018-05-24T06:49:36.834Z,1015.36
2018-05-24T06:50:36.641Z,1015.33
2018-05-24T06:51:36.642Z,1015.32
2018-05-24T06:52:36.513Z,1015.28
2018-05-24T06:53:36.488Z,1015.31
2018-05-24T06:54:36.379Z,1015.31
2018-05-24T06:55:36.362Z,1015.35
2018-05-24T06:56:36.174Z,1015.34
2018-05-24T06:57:36.173Z,1015.33
2018-05-24T06:58:36.011Z,1015.36
2018-05-24T06:59:35.999Z,1015.35
2018-05-24T07:00:35.863Z,1015.37
2018-05-24T07:03:17.963Z,1015.40
2018-05-24T07:04:18.027Z,1015.42
2018-05-24T07:05:17.870Z,1015.37
2018-05-24T07:07:59.961Z,1015.49
2018-05-24T07:09:00.960Z,1015.49
2018-05-24T07:09:59.824Z,1015.56
2018-05-24T07:10:59.881Z,1015.54
2018-05-24T07:11:59.651Z,1015.59
2018-05-24T07:12:59.646Z,1015.57
2018-05-24T07:13:59.486Z,1015.56
2018-05-24T07:14:59.556Z,1015.56
2018-05-24T07:15:59.340Z,1015.59
2018-05-24T07:16:59.330Z,1015.58
2018-05-24T07:17:59.182Z,1015.60
2018-05-24T07:18:59.195Z,1015.59
2018-05-24T07:19:59.038Z,1015.63
2018-05-24T07:20:59.052Z,1015.63
2018-05-24T07:21:58.895Z,1015.62
2018-05-24T07:22:58.863Z,1015.61
2018-05-24T07:23:58.729Z,1015.59
2018-05-24T07:24:58.683Z,1015.61
2018-05-24T07:25:58.574Z,1015.65
2018-05-24T07:26:58.587Z,1015.69
2018-05-24T07:27:58.399Z,1015.70
2018-05-24T07:28:58.420Z,1015.70
2018-05-24T07:29:58.237Z,1015.73
2018-05-24T07:31:14.279Z,1015.70
2018-05-24T07:31:58.080Z,1015.72
2018-05-24T07:32:58.106Z,1015.74
2018-05-24T07:33:57.948Z,1015.73
2018-05-24T07:34:57.917Z,1015.70
2018-05-24T07:35:57.763Z,1015.69
2018-05-24T07:36:57.722Z,1015.70
2018-05-24T07:37:57.737Z,1015.73
2018-05-24T07:38:57.632Z,1015.72
2018-05-24T07:39:57.487Z,1015.77
2018-05-24T07:40:57.486Z,1015.72
2018-05-24T07:41:57.301Z,1015.75
2018-05-24T07:42:57.261Z,1015.75
2018-05-24T07:43:57.153Z,1015.75
2018-05-24T07:44:57.212Z,1015.73
2018-05-24T07:45:57.017Z,1015.76
2018-05-24T07:46:56.962Z,1015.73
2018-05-24T07:47:56.835Z,1015.72
2018-05-24T07:48:56.781Z,1015.77
2018-05-24T07:49:56.691Z,1015.75
2018-05-24T07:50:56.740Z,1015.71
2018-05-24T07:51:56.582Z,1015.73
2018-05-24T07:53:49.555Z,1015.70
2018-05-24T07:53:56.372Z,1015.72
2018-05-24T07:54:56.407Z,1015.68
2018-05-24T07:55:56.240Z,1015.68
2018-05-24T07:56:57.285Z,1015.67
2018-05-24T07:57:56.071Z,1015.65
2018-05-24T07:58:56.032Z,1015.59
2018-05-24T07:59:55.902Z,1015.56
2018-05-24T08:00:55.943Z,1015.60
2018-05-24T08:01:55.767Z,1015.57
2018-05-24T08:04:38.001Z,1015.60
2018-05-24T08:05:37.942Z,1015.58
2018-05-24T08:06:37.819Z,1015.58
2018-05-24T08:07:37.798Z,1015.62
2018-05-24T08:08:37.670Z,1015.67
2018-05-24T08:09:37.667Z,1015.69
2018-05-24T08:10:37.522Z,1015.65
2018-05-24T08:11:37.516Z,1015.72
2018-05-24T08:12:37.381Z,1015.73
2018-05-24T08:13:37.383Z,1015.75
2018-05-24T08:14:37.216Z,1015.76
2018-05-24T08:15:37.186Z,1015.75
2018-05-24T08:16:38.003Z,1015.73
2018-05-24T08:17:37.006Z,1015.84
2018-05-24T08:18:36.896Z,1015.74
2018-05-24T08:19:36.909Z,1015.73
2018-05-24T08:20:36.752Z,1015.68
2018-05-24T08:21:36.764Z,1015.64
2018-05-24T08:22:36.691Z,1015.60
2018-05-24T08:23:36.632Z,1015.69
2018-05-24T08:24:36.440Z,1015.66
2018-05-24T08:25:36.440Z,1015.65
2018-05-24T08:26:36.285Z,1015.64
2018-05-24T08:27:36.281Z,1015.61
2018-05-24T08:28:36.146Z,1015.63
2018-05-24T08:31:18.000Z,1015.62
2018-05-24T08:32:18.024Z,1015.58
2018-05-24T08:33:17.843Z,1015.61
2018-05-24T08:34:17.872Z,1015.62
2018-05-24T08:35:17.695Z,1015.60
2018-05-24T08:36:17.678Z,1015.55
2018-05-24T08:37:17.577Z,1015.58
2018-05-24T08:38:17.607Z,1015.54
2018-05-24T08:39:17.400Z,1015.56
2018-05-24T08:40:17.406Z,1015.57
2018-05-24T08:41:17.243Z,1015.55
2018-05-24T08:42:17.243Z,1015.56
2018-05-24T08:43:17.100Z,1015.62
2018-05-24T08:44:17.109Z,1015.59
2018-05-24T08:45:16.938Z,1015.61
2018-05-24T08:46:16.931Z,1015.55
2018-05-24T08:47:16.803Z,1015.51
2018-05-24T08:48:16.791Z,1015.47
2018-05-24T08:49:16.670Z,1015.46
2018-05-24T08:51:58.492Z,1015.43
2018-05-24T08:52:58.531Z,1015.39
2018-05-24T08:53:58.371Z,1015.42
2018-05-24T08:54:58.360Z,1015.43
2018-05-24T08:55:58.210Z,1015.43
2018-05-24T08:56:58.187Z,1015.39
2018-05-24T08:57:58.041Z,1015.42
2018-05-24T08:58:58.108Z,1015.46
2018-05-24T08:59:57.911Z,1015.43
2018-05-24T09:00:57.872Z,1015.45
2018-05-24T09:01:57.751Z,1015.39
2018-05-24T09:04:40.017Z,1015.35
2018-05-24T09:05:39.979Z,1015.37
2018-05-24T09:06:39.849Z,1015.36
2018-05-24T09:07:39.891Z,1015.38
2018-05-24T09:08:39.706Z,1015.33
2018-05-24T09:09:39.730Z,1015.28
2018-05-24T09:10:39.562Z,1015.27
2018-05-24T09:11:39.509Z,1015.29
2018-05-24T09:12:39.404Z,1015.32
2018-05-24T09:13:39.421Z,1015.32
2018-05-24T09:14:39.273Z,1015.33
2018-05-24T09:15:39.228Z,1015.36
2018-05-24T09:16:39.104Z,1015.36
2018-05-24T09:17:39.138Z,1015.41
2018-05-24T09:18:39.061Z,1015.41
2018-05-24T09:19:38.987Z,1015.39
2018-05-24T09:20:38.836Z,1015.34
2018-05-24T09:21:38.821Z,1015.39
2018-05-24T09:22:38.652Z,1015.35
2018-05-24T09:23:38.686Z,1015.42
2018-05-24T09:24:38.520Z,1015.36
2018-05-24T09:25:38.477Z,1015.36
2018-05-24T09:26:38.343Z,1015.36
2018-05-24T09:27:38.387Z,1015.31
2018-05-24T09:28:38.209Z,1015.37
2018-05-24T09:29:38.149Z,1015.33
2018-05-24T09:30:38.064Z,1015.34
2018-05-24T09:31:38.002Z,1015.38
2018-05-24T09:32:37.900Z,1015.36
2018-05-24T09:35:20.086Z,1015.38
2018-05-24T09:36:20.140Z,1015.41
2018-05-24T09:37:19.864Z,1015.40
2018-05-24T09:38:19.821Z,1015.36
2018-05-24T09:39:19.706Z,1015.37
2018-05-24T09:40:20.704Z,1015.39
2018-05-24T09:41:19.591Z,1015.41
2018-05-24T09:42:19.624Z,1015.43
2018-05-24T09:43:19.396Z,1015.35
2018-05-24T09:44:19.361Z,1015.36
2018-05-24T09:45:19.264Z,1015.36
2018-05-24T09:46:20.224Z,1015.37
2018-05-24T09:47:19.105Z,1015.44
2018-05-24T09:48:19.069Z,1015.37
2018-05-24T09:49:18.963Z,1015.35
2018-05-24T09:52:01.046Z,1015.33
2018-05-24T09:53:00.975Z,1015.31
2018-05-24T09:54:00.857Z,1015.33
2018-05-24T09:55:00.903Z,1015.39
2018-05-24T09:56:00.737Z,1015.35
2018-05-24T09:57:00.761Z,1015.37
2018-05-24T09:58:00.551Z,1015.36
2018-05-24T10:00:42.513Z,1015.62
2018-05-24T10:01:42.568Z,1015.62
2018-05-24T10:02:42.397Z,1015.53
2018-05-24T10:03:42.428Z,1015.50
2018-05-24T10:04:42.229Z,1015.58
2018-05-24T10:05:42.233Z,1015.50
2018-05-24T10:06:42.070Z,1015.48
2018-05-24T10:07:42.053Z,1015.48
2018-05-24T10:08:41.945Z,1015.50
2018-05-24T10:11:24.042Z,1015.49
2018-05-24T10:12:24.080Z,1015.47
2018-05-24T10:13:23.883Z,1015.47
2018-05-24T10:14:23.850Z,1015.51
2018-05-24T10:15:23.722Z,1015.48
2018-05-24T10:16:23.796Z,1015.65
2018-05-24T10:17:23.579Z,1015.48
2018-05-24T10:18:23.602Z,1015.44
2018-05-24T10:19:23.437Z,1015.42
2018-05-24T10:20:23.494Z,1015.39
2018-05-24T10:21:23.304Z,1015.47
2018-05-24T10:22:24.412Z,1015.45
2018-05-24T10:23:23.256Z,1015.48
2018-05-24T10:26:05.048Z,1015.48
2018-05-24T10:27:04.993Z,1015.52
2018-05-24T10:28:04.904Z,1015.47
2018-05-24T10:30:47.025Z,1015.51
2018-05-24T10:31:47.004Z,1015.45
2018-05-24T10:32:46.921Z,1015.43
2018-05-24T10:33:46.821Z,1015.39
2018-05-24T10:34:46.736Z,1015.46
2018-05-24T10:35:46.735Z,1015.44
2018-05-24T10:36:46.590Z,1015.44
2018-05-24T10:37:46.636Z,1015.39
2018-05-24T10:38:46.478Z,1015.63
2018-05-24T10:39:46.443Z,1015.52
2018-05-24T10:40:46.302Z,1015.68
2018-05-24T10:41:46.360Z,1015.57
2018-05-24T10:42:46.199Z,1015.53
2018-05-24T10:43:46.187Z,1015.58
2018-05-24T10:44:46.046Z,1015.55
2018-05-24T10:45:46.071Z,1015.38
2018-05-24T10:46:45.884Z,1015.40
2018-05-24T10:47:45.884Z,1015.40
2018-05-24T10:48:45.771Z,1015.49
2018-05-24T10:49:45.799Z,1015.60
2018-05-24T10:50:45.611Z,1015.50
2018-05-24T10:51:45.616Z,1015.39
2018-05-24T10:52:45.449Z,1015.36
2018-05-24T10:53:45.534Z,1015.35
2018-05-24T10:54:45.306Z,1015.40
2018-05-24T10:55:45.337Z,1015.34
2018-05-24T10:56:45.219Z,1015.25
2018-05-24T10:59:27.148Z,1015.19
2018-05-24T11:00:26.971Z,1015.09
2018-05-24T11:01:26.894Z,1015.09
2018-05-24T11:02:27.024Z,1015.19
2018-05-24T11:03:26.850Z,1015.10
2018-05-24T11:04:26.772Z,1015.23
2018-05-24T11:05:26.617Z,1015.21
2018-05-24T11:06:26.772Z,1015.24
2018-05-24T11:07:26.476Z,1015.24
2018-05-24T11:08:26.464Z,1015.25
2018-05-24T11:09:26.345Z,1015.24
2018-05-24T11:10:26.404Z,1015.17
2018-05-24T11:11:26.193Z,1015.28
2018-05-24T11:12:26.184Z,1015.21
2018-05-24T11:13:26.061Z,1015.15
2018-05-24T11:14:26.088Z,1015.23
2018-05-24T11:15:25.948Z,1015.25
2018-05-24T11:18:08.051Z,1015.16
2018-05-24T11:19:08.106Z,1015.18
2018-05-24T11:20:07.945Z,1015.14
2018-05-24T11:21:07.918Z,1015.09
2018-05-24T11:22:07.771Z,1015.15
2018-05-24T11:23:07.822Z,1015.19
2018-05-24T11:24:07.627Z,1015.16
2018-05-24T11:25:08.716Z,1015.13
2018-05-24T11:26:07.493Z,1015.21
2018-05-24T11:27:07.567Z,1015.14
2018-05-24T11:28:07.352Z,1015.15
2018-05-24T11:29:07.356Z,1015.09
2018-05-24T11:30:07.253Z,1015.06
2018-05-24T11:31:07.270Z,1015.01
2018-05-24T11:32:07.254Z,1015.05
2018-05-24T11:33:07.058Z,1015.01
2018-05-24T11:34:06.960Z,1015.06
2018-05-24T11:35:06.992Z,1015.00
2018-05-24T11:36:06.845Z,1014.97
2018-05-24T11:37:06.831Z,1014.92
2018-05-24T11:38:06.680Z,1014.78
2018-05-24T11:39:06.708Z,1014.80
2018-05-24T11:40:06.550Z,1014.84
2018-05-24T11:41:06.640Z,1014.77
2018-05-24T11:42:06.446Z,1014.79
2018-05-24T11:43:06.525Z,1014.81
2018-05-24T11:44:06.273Z,1014.74
2018-05-24T11:45:06.243Z,1014.68
2018-05-24T11:46:06.139Z,1014.68
2018-05-24T11:47:06.097Z,1014.64
2018-05-24T11:48:06.015Z,1014.67
2018-05-24T11:49:05.967Z,1014.63
2018-05-24T11:50:05.878Z,1014.65
2018-05-24T11:51:06.202Z,1014.63
2018-05-24T11:52:05.827Z,1014.63
2018-05-24T11:53:07.353Z,1014.65
2018-05-24T11:54:05.631Z,1014.59
2018-05-24T11:55:07.541Z,1014.56
2018-05-24T11:56:05.474Z,1014.55
2018-05-24T11:57:07.640Z,1014.52
2018-05-24T11:58:05.345Z,1014.53
2018-05-24T11:59:07.750Z,1014.55
2018-05-24T12:00:05.202Z,1014.54
2018-05-24T12:02:51.123Z,1014.55
2018-05-24T12:03:51.133Z,1014.53
2018-05-24T12:04:50.924Z,1014.50
2018-05-24T12:07:33.069Z,1014.45
2018-05-24T12:08:33.140Z,1014.41
2018-05-24T12:09:32.917Z,1014.36
2018-05-24T12:10:32.917Z,1014.38
2018-05-24T12:11:32.782Z,1014.35
2018-05-24T12:12:32.827Z,1014.34
2018-05-24T12:13:32.659Z,1014.31
2018-05-24T12:16:14.586Z,1014.32
2018-05-24T12:17:14.521Z,1014.33
2018-05-24T12:18:14.438Z,1014.32
2018-05-24T12:19:14.428Z,1014.33
2018-05-24T12:20:14.279Z,1014.26
2018-05-24T12:21:14.242Z,1014.29
2018-05-24T12:22:14.131Z,1014.26
2018-05-24T12:23:14.149Z,1014.26
2018-05-24T12:24:14.126Z,1014.25
2018-05-24T12:25:14.037Z,1014.21
2018-05-24T12:26:13.845Z,1014.16
2018-05-24T12:27:13.877Z,1014.11
2018-05-24T12:28:13.697Z,1014.07
2018-05-24T12:29:13.804Z,1014.12
2018-05-24T12:30:13.547Z,1014.11
2018-05-24T12:31:13.599Z,1014.07
2018-05-24T12:32:13.411Z,1014.12
2018-05-24T12:33:13.403Z,1014.06
2018-05-24T12:34:13.290Z,1014.05
2018-05-24T12:35:13.362Z,1014.08
2018-05-24T12:36:13.111Z,1013.96
2018-05-24T12:37:13.125Z,1014.04
2018-05-24T12:38:12.977Z,1013.93
2018-05-24T12:39:13.063Z,1013.93
2018-05-24T12:40:12.848Z,1013.89
2018-05-24T12:41:12.849Z,1013.83
2018-05-24T12:42:12.668Z,1013.85
2018-05-24T12:43:12.648Z,1013.91
2018-05-24T12:44:12.533Z,1013.90
2018-05-24T12:45:12.601Z,1013.88
2018-05-24T12:46:12.382Z,1013.81
2018-05-24T12:47:12.365Z,1013.84
2018-05-24T12:48:12.227Z,1013.85
2018-05-24T12:49:12.279Z,1013.88
2018-05-24T12:50:12.122Z,1013.87
2018-05-24T12:51:12.092Z,1013.88
2018-05-24T12:52:11.972Z,1013.81
2018-05-24T12:53:12.014Z,1013.84
2018-05-24T12:54:11.861Z,1013.80
2018-05-24T12:55:12.360Z,1013.84
2018-05-24T12:56:11.684Z,1013.78
2018-05-24T12:58:53.586Z,1013.69
2018-05-24T12:59:53.658Z,1013.67
2018-05-24T13:00:53.477Z,1013.74
2018-05-24T13:01:53.418Z,1013.69
2018-05-24T13:02:53.288Z,1013.71
2018-05-24T13:03:53.333Z,1013.67
2018-05-24T13:04:53.190Z,1013.72
2018-05-24T13:05:53.143Z,1013.72
2018-05-24T13:06:53.094Z,1013.72
2018-05-24T13:07:53.060Z,1013.73
2018-05-24T13:08:52.870Z,1013.68
2018-05-24T13:09:52.874Z,1013.70
2018-05-24T13:10:52.761Z,1013.64
2018-05-24T13:11:55.179Z,1013.64
2018-05-24T13:12:52.586Z,1013.65
2018-05-24T13:13:52.581Z,1013.66
2018-05-24T13:14:52.435Z,1013.63